sensor_id;sensor_type;location;lat;lon;timestamp;P1;durP1;ratioP1;P2;durP2;ratioP2
12218;SDS011;6172;42.646;23.344;2024-03-06T00:00:31;25.00;;;14.50;;
12218;SDS011;6172;42.646;23.344;2024-03-06T00:02:59;26.77;;;15.03;;
12218;SDS011;6172;42.646;23.344;2024-03-06T00:05:26;24.37;;;14.70;;
12218;SDS011;6172;42.646;23.344;2024-03-06T00:07:53;23.73;;;15.03;;
12218;SDS011;6172;42.646;23.344;2024-03-06T00:10:20;24.23;;;14.67;;
12218;SDS011;6172;42.646;23.344;2024-03-06T00:12:47;22.37;;;13.43;;
12218;SDS011;6172;42.646;23.344;2024-03-06T00:15:15;22.47;;;13.47;;
12218;SDS011;6172;42.646;23.344;2024-03-06T00:17:49;21.70;;;12.93;;
12218;SDS011;6172;42.646;23.344;2024-03-06T00:20:16;19.70;;;12.83;;
12218;SDS011;6172;42.646;23.344;2024-03-06T00:22:44;22.53;;;13.43;;
12218;SDS011;6172;42.646;23.344;2024-03-06T00:25:12;24.03;;;13.33;;
12218;SDS011;6172;42.646;23.344;2024-03-06T00:27:40;27.03;;;14.37;;
12218;SDS011;6172;42.646;23.344;2024-03-06T00:30:07;21.23;;;12.97;;
12218;SDS011;6172;42.646;23.344;2024-03-06T00:32:35;24.27;;;14.97;;
12218;SDS011;6172;42.646;23.344;2024-03-06T00:35:06;23.70;;;15.23;;
12218;SDS011;6172;42.646;23.344;2024-03-06T00:37:33;29.17;;;15.50;;
12218;SDS011;6172;42.646;23.344;2024-03-06T00:40:00;27.43;;;16.30;;
12218;SDS011;6172;42.646;23.344;2024-03-06T00:42:28;28.90;;;15.40;;
12218;SDS011;6172;42.646;23.344;2024-03-06T00:44:55;27.13;;;15.40;;
12218;SDS011;6172;42.646;23.344;2024-03-06T00:47:22;22.07;;;13.83;;
12218;SDS011;6172;42.646;23.344;2024-03-06T00:49:49;25.77;;;14.20;;
12218;SDS011;6172;42.646;23.344;2024-03-06T00:52:18;23.90;;;13.47;;
12218;SDS011;6172;42.646;23.344;2024-03-06T00:54:45;22.60;;;13.17;;
12218;SDS011;6172;42.646;23.344;2024-03-06T00:57:13;26.33;;;13.83;;
12218;SDS011;6172;42.646;23.344;2024-03-06T00:59:40;25.13;;;14.93;;
12218;SDS011;6172;42.646;23.344;2024-03-06T01:02:08;23.70;;;14.27;;
12218;SDS011;6172;42.646;23.344;2024-03-06T01:04:35;23.13;;;13.97;;
12218;SDS011;6172;42.646;23.344;2024-03-06T01:07:02;24.80;;;14.77;;
12218;SDS011;6172;42.646;23.344;2024-03-06T01:09:31;25.70;;;14.37;;
12218;SDS011;6172;42.646;23.344;2024-03-06T01:11:58;23.53;;;14.50;;
12218;SDS011;6172;42.646;23.344;2024-03-06T01:14:25;25.60;;;14.37;;
12218;SDS011;6172;42.646;23.344;2024-03-06T01:16:52;27.93;;;15.30;;
12218;SDS011;6172;42.646;23.344;2024-03-06T01:19:19;24.30;;;15.27;;
12218;SDS011;6172;42.646;23.344;2024-03-06T01:21:46;26.73;;;14.73;;
12218;SDS011;6172;42.646;23.344;2024-03-06T01:24:13;24.93;;;14.57;;
12218;SDS011;6172;42.646;23.344;2024-03-06T01:26:42;24.37;;;14.33;;
12218;SDS011;6172;42.646;23.344;2024-03-06T01:29:09;26.77;;;15.33;;
12218;SDS011;6172;42.646;23.344;2024-03-06T01:31:36;24.70;;;14.40;;
12218;SDS011;6172;42.646;23.344;2024-03-06T01:34:03;25.87;;;15.07;;
12218;SDS011;6172;42.646;23.344;2024-03-06T01:36:30;28.10;;;15.10;;
12218;SDS011;6172;42.646;23.344;2024-03-06T01:38:59;25.83;;;14.47;;
12218;SDS011;6172;42.646;23.344;2024-03-06T01:41:29;23.37;;;14.33;;
12218;SDS011;6172;42.646;23.344;2024-03-06T01:43:57;27.03;;;15.13;;
12218;SDS011;6172;42.646;23.344;2024-03-06T01:46:24;26.17;;;15.80;;
12218;SDS011;6172;42.646;23.344;2024-03-06T01:48:51;24.63;;;15.97;;
12218;SDS011;6172;42.646;23.344;2024-03-06T01:51:19;26.87;;;15.33;;
12218;SDS011;6172;42.646;23.344;2024-03-06T01:53:46;27.10;;;16.10;;
12218;SDS011;6172;42.646;23.344;2024-03-06T01:56:14;27.80;;;15.77;;
12218;SDS011;6172;42.646;23.344;2024-03-06T01:58:42;29.63;;;16.20;;
12218;SDS011;6172;42.646;23.344;2024-03-06T02:01:22;27.57;;;16.57;;
12218;SDS011;6172;42.646;23.344;2024-03-06T02:03:49;28.70;;;15.73;;
12218;SDS011;6172;42.646;23.344;2024-03-06T02:06:17;27.87;;;16.77;;
12218;SDS011;6172;42.646;23.344;2024-03-06T02:08:44;25.93;;;15.83;;
12218;SDS011;6172;42.646;23.344;2024-03-06T02:11:12;23.50;;;14.67;;
12218;SDS011;6172;42.646;23.344;2024-03-06T02:13:40;28.60;;;15.13;;
12218;SDS011;6172;42.646;23.344;2024-03-06T02:16:08;25.67;;;16.07;;
12218;SDS011;6172;42.646;23.344;2024-03-06T02:18:37;26.73;;;14.77;;
12218;SDS011;6172;42.646;23.344;2024-03-06T02:21:18;24.13;;;14.20;;
12218;SDS011;6172;42.646;23.344;2024-03-06T02:23:44;22.80;;;14.33;;
12218;SDS011;6172;42.646;23.344;2024-03-06T02:26:11;26.70;;;15.37;;
12218;SDS011;6172;42.646;23.344;2024-03-06T02:28:38;29.83;;;16.30;;
12218;SDS011;6172;42.646;23.344;2024-03-06T02:31:06;24.30;;;13.67;;
12218;SDS011;6172;42.646;23.344;2024-03-06T02:33:33;25.40;;;15.13;;
12218;SDS011;6172;42.646;23.344;2024-03-06T02:36:00;27.83;;;15.97;;
12218;SDS011;6172;42.646;23.344;2024-03-06T02:38:29;25.77;;;14.77;;
12218;SDS011;6172;42.646;23.344;2024-03-06T02:40:56;28.77;;;16.10;;
12218;SDS011;6172;42.646;23.344;2024-03-06T02:43:22;25.90;;;15.37;;
12218;SDS011;6172;42.646;23.344;2024-03-06T02:45:50;25.63;;;16.53;;
12218;SDS011;6172;42.646;23.344;2024-03-06T02:48:17;27.87;;;15.70;;
12218;SDS011;6172;42.646;23.344;2024-03-06T02:50:44;25.80;;;15.70;;
12218;SDS011;6172;42.646;23.344;2024-03-06T02:53:12;24.77;;;15.53;;
12218;SDS011;6172;42.646;23.344;2024-03-06T02:55:41;26.03;;;15.60;;
12218;SDS011;6172;42.646;23.344;2024-03-06T02:58:08;29.50;;;15.50;;
12218;SDS011;6172;42.646;23.344;2024-03-06T03:00:35;25.20;;;14.73;;
12218;SDS011;6172;42.646;23.344;2024-03-06T03:03:02;29.67;;;15.80;;
12218;SDS011;6172;42.646;23.344;2024-03-06T03:05:29;30.83;;;16.30;;
12218;SDS011;6172;42.646;23.344;2024-03-06T03:07:58;26.60;;;15.43;;
12218;SDS011;6172;42.646;23.344;2024-03-06T03:10:25;28.03;;;16.23;;
12218;SDS011;6172;42.646;23.344;2024-03-06T03:12:54;30.10;;;16.57;;
12218;SDS011;6172;42.646;23.344;2024-03-06T03:15:21;27.93;;;16.07;;
12218;SDS011;6172;42.646;23.344;2024-03-06T03:17:48;30.47;;;16.83;;
12218;SDS011;6172;42.646;23.344;2024-03-06T03:20:15;29.43;;;16.73;;
12218;SDS011;6172;42.646;23.344;2024-03-06T03:22:42;34.97;;;17.43;;
12218;SDS011;6172;42.646;23.344;2024-03-06T03:25:10;29.40;;;16.50;;
12218;SDS011;6172;42.646;23.344;2024-03-06T03:27:37;33.33;;;16.47;;
12218;SDS011;6172;42.646;23.344;2024-03-06T03:30:08;36.00;;;17.63;;
12218;SDS011;6172;42.646;23.344;2024-03-06T03:32:35;28.03;;;17.03;;
12218;SDS011;6172;42.646;23.344;2024-03-06T03:35:03;32.90;;;17.87;;
12218;SDS011;6172;42.646;23.344;2024-03-06T03:37:30;37.07;;;18.93;;
12218;SDS011;6172;42.646;23.344;2024-03-06T03:39:58;31.80;;;17.00;;
12218;SDS011;6172;42.646;23.344;2024-03-06T03:42:25;35.47;;;18.83;;
12218;SDS011;6172;42.646;23.344;2024-03-06T03:44:52;29.40;;;17.77;;
12218;SDS011;6172;42.646;23.344;2024-03-06T03:47:20;32.70;;;17.37;;
12218;SDS011;6172;42.646;23.344;2024-03-06T03:49:47;33.47;;;17.70;;
12218;SDS011;6172;42.646;23.344;2024-03-06T03:52:15;30.93;;;17.17;;
12218;SDS011;6172;42.646;23.344;2024-03-06T03:54:42;29.23;;;16.80;;
12218;SDS011;6172;42.646;23.344;2024-03-06T03:57:09;29.17;;;16.97;;
12218;SDS011;6172;42.646;23.344;2024-03-06T03:59:36;33.77;;;18.17;;
12218;SDS011;6172;42.646;23.344;2024-03-06T04:02:06;32.83;;;17.20;;
12218;SDS011;6172;42.646;23.344;2024-03-06T04:04:35;31.73;;;17.77;;
12218;SDS011;6172;42.646;23.344;2024-03-06T04:07:02;28.40;;;16.87;;
12218;SDS011;6172;42.646;23.344;2024-03-06T04:09:31;33.27;;;18.27;;
12218;SDS011;6172;42.646;23.344;2024-03-06T04:12:00;33.93;;;17.30;;
12218;SDS011;6172;42.646;23.344;2024-03-06T04:14:28;31.40;;;17.97;;
12218;SDS011;6172;42.646;23.344;2024-03-06T04:16:55;35.10;;;18.57;;
12218;SDS011;6172;42.646;23.344;2024-03-06T04:19:22;29.47;;;16.57;;
12218;SDS011;6172;42.646;23.344;2024-03-06T04:21:50;29.53;;;17.47;;
12218;SDS011;6172;42.646;23.344;2024-03-06T04:24:18;35.63;;;17.87;;
12218;SDS011;6172;42.646;23.344;2024-03-06T04:26:45;31.57;;;18.83;;
12218;SDS011;6172;42.646;23.344;2024-03-06T04:29:12;35.80;;;18.50;;
12218;SDS011;6172;42.646;23.344;2024-03-06T04:31:39;34.07;;;18.07;;
12218;SDS011;6172;42.646;23.344;2024-03-06T04:34:06;36.37;;;18.13;;
12218;SDS011;6172;42.646;23.344;2024-03-06T04:36:33;34.17;;;17.60;;
12218;SDS011;6172;42.646;23.344;2024-03-06T04:39:01;30.30;;;17.47;;
12218;SDS011;6172;42.646;23.344;2024-03-06T04:41:32;34.57;;;18.73;;
12218;SDS011;6172;42.646;23.344;2024-03-06T04:43:59;30.23;;;17.17;;
12218;SDS011;6172;42.646;23.344;2024-03-06T04:46:26;33.93;;;17.67;;
12218;SDS011;6172;42.646;23.344;2024-03-06T04:48:53;31.30;;;17.50;;
12218;SDS011;6172;42.646;23.344;2024-03-06T04:51:20;32.30;;;17.10;;
12218;SDS011;6172;42.646;23.344;2024-03-06T04:53:47;31.60;;;17.07;;
12218;SDS011;6172;42.646;23.344;2024-03-06T04:56:16;31.53;;;18.40;;
12218;SDS011;6172;42.646;23.344;2024-03-06T04:58:46;31.50;;;17.37;;
12218;SDS011;6172;42.646;23.344;2024-03-06T05:01:13;30.00;;;16.63;;
12218;SDS011;6172;42.646;23.344;2024-03-06T05:03:40;33.03;;;17.70;;
12218;SDS011;6172;42.646;23.344;2024-03-06T05:06:07;30.80;;;17.40;;
12218;SDS011;6172;42.646;23.344;2024-03-06T05:08:35;35.47;;;18.37;;
12218;SDS011;6172;42.646;23.344;2024-03-06T05:11:03;32.77;;;17.93;;
12218;SDS011;6172;42.646;23.344;2024-03-06T05:13:33;33.00;;;16.80;;
12218;SDS011;6172;42.646;23.344;2024-03-06T05:16:00;33.10;;;18.23;;
12218;SDS011;6172;42.646;23.344;2024-03-06T05:18:28;36.37;;;19.47;;
12218;SDS011;6172;42.646;23.344;2024-03-06T05:20:55;31.63;;;18.73;;
12218;SDS011;6172;42.646;23.344;2024-03-06T05:23:22;33.37;;;18.20;;
12218;SDS011;6172;42.646;23.344;2024-03-06T05:25:50;33.27;;;18.57;;
12218;SDS011;6172;42.646;23.344;2024-03-06T05:28:17;32.60;;;18.80;;
12218;SDS011;6172;42.646;23.344;2024-03-06T05:30:45;33.50;;;18.60;;
12218;SDS011;6172;42.646;23.344;2024-03-06T05:33:12;33.50;;;18.57;;
12218;SDS011;6172;42.646;23.344;2024-03-06T05:35:40;33.10;;;17.10;;
12218;SDS011;6172;42.646;23.344;2024-03-06T05:38:07;33.47;;;17.17;;
12218;SDS011;6172;42.646;23.344;2024-03-06T05:40:34;37.70;;;18.03;;
12218;SDS011;6172;42.646;23.344;2024-03-06T05:43:05;40.70;;;18.20;;
12218;SDS011;6172;42.646;23.344;2024-03-06T05:45:32;37.07;;;17.33;;
12218;SDS011;6172;42.646;23.344;2024-03-06T05:48:01;40.20;;;18.80;;
12218;SDS011;6172;42.646;23.344;2024-03-06T05:50:29;31.67;;;17.27;;
12218;SDS011;6172;42.646;23.344;2024-03-06T05:52:57;31.37;;;18.30;;
12218;SDS011;6172;42.646;23.344;2024-03-06T05:55:25;32.03;;;17.10;;
12218;SDS011;6172;42.646;23.344;2024-03-06T05:57:53;35.47;;;17.50;;
12218;SDS011;6172;42.646;23.344;2024-03-06T06:00:30;34.33;;;18.47;;
12218;SDS011;6172;42.646;23.344;2024-03-06T06:02:58;35.13;;;18.37;;
12218;SDS011;6172;42.646;23.344;2024-03-06T06:05:26;30.80;;;17.40;;
12218;SDS011;6172;42.646;23.344;2024-03-06T06:07:54;35.57;;;17.43;;
12218;SDS011;6172;42.646;23.344;2024-03-06T06:10:21;34.70;;;17.80;;
12218;SDS011;6172;42.646;23.344;2024-03-06T06:12:48;37.50;;;19.20;;
12218;SDS011;6172;42.646;23.344;2024-03-06T06:15:15;31.53;;;17.87;;
12218;SDS011;6172;42.646;23.344;2024-03-06T06:17:43;32.53;;;18.53;;
12218;SDS011;6172;42.646;23.344;2024-03-06T06:20:11;36.80;;;18.87;;
12218;SDS011;6172;42.646;23.344;2024-03-06T06:22:41;33.30;;;18.07;;
12218;SDS011;6172;42.646;23.344;2024-03-06T06:25:08;34.77;;;17.23;;
12218;SDS011;6172;42.646;23.344;2024-03-06T06:27:35;37.30;;;18.43;;
12218;SDS011;6172;42.646;23.344;2024-03-06T06:30:03;41.27;;;19.50;;
12218;SDS011;6172;42.646;23.344;2024-03-06T06:32:31;35.17;;;18.37;;
12218;SDS011;6172;42.646;23.344;2024-03-06T06:34:58;33.73;;;18.63;;
12218;SDS011;6172;42.646;23.344;2024-03-06T06:37:25;33.03;;;17.07;;
12218;SDS011;6172;42.646;23.344;2024-03-06T06:39:54;32.63;;;16.50;;
12218;SDS011;6172;42.646;23.344;2024-03-06T06:42:21;30.70;;;15.07;;
12218;SDS011;6172;42.646;23.344;2024-03-06T06:44:50;25.23;;;14.73;;
12218;SDS011;6172;42.646;23.344;2024-03-06T06:47:18;31.23;;;16.30;;
12218;SDS011;6172;42.646;23.344;2024-03-06T06:49:46;28.20;;;15.63;;
12218;SDS011;6172;42.646;23.344;2024-03-06T06:52:13;24.60;;;15.77;;
12218;SDS011;6172;42.646;23.344;2024-03-06T06:54:40;25.70;;;15.10;;
12218;SDS011;6172;42.646;23.344;2024-03-06T06:57:09;22.93;;;15.13;;
12218;SDS011;6172;42.646;23.344;2024-03-06T06:59:36;25.97;;;14.73;;
12218;SDS011;6172;42.646;23.344;2024-03-06T07:02:04;26.57;;;15.57;;
12218;SDS011;6172;42.646;23.344;2024-03-06T07:04:34;29.90;;;16.00;;
12218;SDS011;6172;42.646;23.344;2024-03-06T07:07:01;26.67;;;17.07;;
12218;SDS011;6172;42.646;23.344;2024-03-06T07:09:30;24.80;;;16.53;;
12218;SDS011;6172;42.646;23.344;2024-03-06T07:11:57;27.23;;;15.90;;
12218;SDS011;6172;42.646;23.344;2024-03-06T07:14:28;25.57;;;15.73;;
12218;SDS011;6172;42.646;23.344;2024-03-06T07:16:56;27.47;;;16.10;;
12218;SDS011;6172;42.646;23.344;2024-03-06T07:19:23;27.87;;;16.07;;
12218;SDS011;6172;42.646;23.344;2024-03-06T07:21:50;27.53;;;15.03;;
12218;SDS011;6172;42.646;23.344;2024-03-06T07:24:18;23.53;;;15.60;;
12218;SDS011;6172;42.646;23.344;2024-03-06T07:26:54;25.87;;;15.60;;
12218;SDS011;6172;42.646;23.344;2024-03-06T07:29:21;24.10;;;14.93;;
12218;SDS011;6172;42.646;23.344;2024-03-06T07:31:52;28.33;;;15.73;;
12218;SDS011;6172;42.646;23.344;2024-03-06T07:34:20;22.83;;;15.03;;
12218;SDS011;6172;42.646;23.344;2024-03-06T07:36:50;23.50;;;14.63;;
12218;SDS011;6172;42.646;23.344;2024-03-06T07:39:18;27.17;;;14.47;;
12218;SDS011;6172;42.646;23.344;2024-03-06T07:41:46;23.10;;;14.93;;
12218;SDS011;6172;42.646;23.344;2024-03-06T07:44:15;26.63;;;15.13;;
12218;SDS011;6172;42.646;23.344;2024-03-06T07:46:42;24.53;;;14.97;;
12218;SDS011;6172;42.646;23.344;2024-03-06T07:49:10;26.70;;;15.50;;
12218;SDS011;6172;42.646;23.344;2024-03-06T07:51:37;24.90;;;14.93;;
12218;SDS011;6172;42.646;23.344;2024-03-06T07:54:07;24.40;;;15.20;;
12218;SDS011;6172;42.646;23.344;2024-03-06T07:56:34;24.43;;;14.43;;
12218;SDS011;6172;42.646;23.344;2024-03-06T07:59:03;20.20;;;14.27;;
12218;SDS011;6172;42.646;23.344;2024-03-06T08:01:32;22.47;;;14.03;;
12218;SDS011;6172;42.646;23.344;2024-03-06T08:04:00;22.53;;;13.70;;
12218;SDS011;6172;42.646;23.344;2024-03-06T08:06:34;22.40;;;13.67;;
12218;SDS011;6172;42.646;23.344;2024-03-06T08:09:02;24.57;;;14.70;;
12218;SDS011;6172;42.646;23.344;2024-03-06T08:11:32;22.83;;;13.80;;
12218;SDS011;6172;42.646;23.344;2024-03-06T08:13:59;25.77;;;15.00;;
12218;SDS011;6172;42.646;23.344;2024-03-06T08:16:27;25.93;;;14.47;;
12218;SDS011;6172;42.646;23.344;2024-03-06T08:18:55;28.47;;;17.30;;
12218;SDS011;6172;42.646;23.344;2024-03-06T08:21:25;30.50;;;17.47;;
12218;SDS011;6172;42.646;23.344;2024-03-06T08:23:55;28.33;;;16.57;;
12218;SDS011;6172;42.646;23.344;2024-03-06T08:26:24;24.10;;;16.17;;
12218;SDS011;6172;42.646;23.344;2024-03-06T08:28:51;26.13;;;16.77;;
12218;SDS011;6172;42.646;23.344;2024-03-06T08:31:19;24.33;;;17.67;;
12218;SDS011;6172;42.646;23.344;2024-03-06T08:33:47;30.83;;;18.17;;
12218;SDS011;6172;42.646;23.344;2024-03-06T08:36:22;26.03;;;17.63;;
12218;SDS011;6172;42.646;23.344;2024-03-06T08:38:50;27.53;;;17.13;;
12218;SDS011;6172;42.646;23.344;2024-03-06T08:41:22;28.47;;;17.30;;
12218;SDS011;6172;42.646;23.344;2024-03-06T08:43:51;26.20;;;16.77;;
12218;SDS011;6172;42.646;23.344;2024-03-06T08:46:19;22.47;;;15.63;;
12218;SDS011;6172;42.646;23.344;2024-03-06T08:48:47;27.77;;;16.77;;
12218;SDS011;6172;42.646;23.344;2024-03-06T08:51:14;23.53;;;16.03;;
12218;SDS011;6172;42.646;23.344;2024-03-06T08:53:42;26.47;;;16.97;;
12218;SDS011;6172;42.646;23.344;2024-03-06T08:56:09;32.90;;;17.07;;
12218;SDS011;6172;42.646;23.344;2024-03-06T08:58:39;26.27;;;16.07;;
12218;SDS011;6172;42.646;23.344;2024-03-06T09:01:20;26.23;;;15.83;;
12218;SDS011;6172;42.646;23.344;2024-03-06T09:03:50;22.00;;;16.13;;
12218;SDS011;6172;42.646;23.344;2024-03-06T09:06:23;22.90;;;15.70;;
12218;SDS011;6172;42.646;23.344;2024-03-06T09:08:50;24.00;;;16.47;;
12218;SDS011;6172;42.646;23.344;2024-03-06T09:11:17;24.90;;;15.03;;
12218;SDS011;6172;42.646;23.344;2024-03-06T09:13:46;23.13;;;15.60;;
12218;SDS011;6172;42.646;23.344;2024-03-06T09:16:15;28.63;;;15.43;;
12218;SDS011;6172;42.646;23.344;2024-03-06T09:18:46;24.47;;;16.57;;
12218;SDS011;6172;42.646;23.344;2024-03-06T09:21:14;21.83;;;15.13;;
12218;SDS011;6172;42.646;23.344;2024-03-06T09:23:41;22.97;;;14.07;;
12218;SDS011;6172;42.646;23.344;2024-03-06T09:26:09;20.10;;;13.57;;
12218;SDS011;6172;42.646;23.344;2024-03-06T09:28:36;18.80;;;13.87;;
12218;SDS011;6172;42.646;23.344;2024-03-06T09:31:07;20.37;;;14.83;;
12218;SDS011;6172;42.646;23.344;2024-03-06T09:33:38;25.07;;;14.87;;
12218;SDS011;6172;42.646;23.344;2024-03-06T09:36:07;20.97;;;13.83;;
12218;SDS011;6172;42.646;23.344;2024-03-06T09:38:38;22.57;;;13.73;;
12218;SDS011;6172;42.646;23.344;2024-03-06T09:41:06;17.73;;;11.67;;
12218;SDS011;6172;42.646;23.344;2024-03-06T09:43:35;16.13;;;11.93;;
12218;SDS011;6172;42.646;23.344;2024-03-06T09:46:08;19.63;;;13.03;;
12218;SDS011;6172;42.646;23.344;2024-03-06T09:48:40;18.93;;;12.37;;
12218;SDS011;6172;42.646;23.344;2024-03-06T09:51:12;20.17;;;12.17;;
12218;SDS011;6172;42.646;23.344;2024-03-06T09:53:41;21.93;;;12.57;;
12218;SDS011;6172;42.646;23.344;2024-03-06T09:56:09;18.73;;;12.07;;
12218;SDS011;6172;42.646;23.344;2024-03-06T09:58:37;16.57;;;11.70;;
12218;SDS011;6172;42.646;23.344;2024-03-06T10:01:04;14.93;;;10.23;;
12218;SDS011;6172;42.646;23.344;2024-03-06T10:03:44;14.87;;;9.00;;
12218;SDS011;6172;42.646;23.344;2024-03-06T10:06:12;14.97;;;9.10;;
12218;SDS011;6172;42.646;23.344;2024-03-06T10:08:41;14.47;;;8.27;;
12218;SDS011;6172;42.646;23.344;2024-03-06T10:11:16;13.47;;;7.10;;
12218;SDS011;6172;42.646;23.344;2024-03-06T10:13:47;12.97;;;7.57;;
12218;SDS011;6172;42.646;23.344;2024-03-06T10:16:16;10.63;;;7.27;;
12218;SDS011;6172;42.646;23.344;2024-03-06T10:18:43;14.27;;;9.70;;
12218;SDS011;6172;42.646;23.344;2024-03-06T10:21:10;12.03;;;8.70;;
12218;SDS011;6172;42.646;23.344;2024-03-06T10:23:39;12.63;;;9.13;;
12218;SDS011;6172;42.646;23.344;2024-03-06T10:26:06;15.63;;;8.53;;
12218;SDS011;6172;42.646;23.344;2024-03-06T10:28:34;13.20;;;8.63;;
12218;SDS011;6172;42.646;23.344;2024-03-06T10:31:04;14.33;;;9.17;;
12218;SDS011;6172;42.646;23.344;2024-03-06T10:33:35;11.77;;;7.80;;
12218;SDS011;6172;42.646;23.344;2024-03-06T10:36:02;15.50;;;7.90;;
12218;SDS011;6172;42.646;23.344;2024-03-06T10:38:30;13.30;;;7.30;;
12218;SDS011;6172;42.646;23.344;2024-03-06T10:41:03;9.93;;;6.47;;
12218;SDS011;6172;42.646;23.344;2024-03-06T10:43:32;10.57;;;6.63;;
12218;SDS011;6172;42.646;23.344;2024-03-06T10:46:02;10.97;;;7.90;;
12218;SDS011;6172;42.646;23.344;2024-03-06T10:48:33;12.37;;;7.90;;
12218;SDS011;6172;42.646;23.344;2024-03-06T10:51:06;11.97;;;7.57;;
12218;SDS011;6172;42.646;23.344;2024-03-06T10:53:34;12.57;;;8.47;;
12218;SDS011;6172;42.646;23.344;2024-03-06T10:56:03;11.83;;;7.47;;
12218;SDS011;6172;42.646;23.344;2024-03-06T10:58:35;10.53;;;7.03;;
12218;SDS011;6172;42.646;23.344;2024-03-06T11:01:06;10.20;;;5.63;;
12218;SDS011;6172;42.646;23.344;2024-03-06T11:03:36;9.38;;;5.80;;
12218;SDS011;6172;42.646;23.344;2024-03-06T11:06:05;7.63;;;5.90;;
12218;SDS011;6172;42.646;23.344;2024-03-06T11:08:32;10.98;;;6.70;;
12218;SDS011;6172;42.646;23.344;2024-03-06T11:13:47;9.50;;;5.90;;
12218;SDS011;6172;42.646;23.344;2024-03-06T11:16:14;11.53;;;5.67;;
12218;SDS011;6172;42.646;23.344;2024-03-06T11:18:43;7.07;;;5.73;;
12218;SDS011;6172;42.646;23.344;2024-03-06T11:21:32;9.20;;;6.27;;
12218;SDS011;6172;42.646;23.344;2024-03-06T11:26:48;10.50;;;6.20;;
12218;SDS011;6172;42.646;23.344;2024-03-06T11:29:16;9.70;;;6.75;;
12218;SDS011;6172;42.646;23.344;2024-03-06T11:32:09;14.30;;;6.65;;
12218;SDS011;6172;42.646;23.344;2024-03-06T11:34:41;7.93;;;5.82;;
12218;SDS011;6172;42.646;23.344;2024-03-06T11:37:08;8.82;;;6.10;;
12218;SDS011;6172;42.646;23.344;2024-03-06T11:39:39;7.85;;;5.35;;
12218;SDS011;6172;42.646;23.344;2024-03-06T11:42:32;7.03;;;5.82;;
12218;SDS011;6172;42.646;23.344;2024-03-06T11:48:23;10.73;;;6.15;;
12218;SDS011;6172;42.646;23.344;2024-03-06T11:50:56;7.07;;;5.93;;
12218;SDS011;6172;42.646;23.344;2024-03-06T11:53:30;9.82;;;6.82;;
12218;SDS011;6172;42.646;23.344;2024-03-06T11:55:58;9.95;;;7.53;;
12218;SDS011;6172;42.646;23.344;2024-03-06T11:58:25;7.80;;;6.28;;
12218;SDS011;6172;42.646;23.344;2024-03-06T12:00:53;8.75;;;5.97;;
12218;SDS011;6172;42.646;23.344;2024-03-06T12:03:22;10.10;;;6.30;;
12218;SDS011;6172;42.646;23.344;2024-03-06T12:06:05;7.60;;;5.20;;
12218;SDS011;6172;42.646;23.344;2024-03-06T12:08:38;9.10;;;4.95;;
12218;SDS011;6172;42.646;23.344;2024-03-06T12:11:07;11.40;;;5.93;;
12218;SDS011;6172;42.646;23.344;2024-03-06T12:13:36;7.87;;;4.77;;
12218;SDS011;6172;42.646;23.344;2024-03-06T12:16:06;7.67;;;4.93;;
12218;SDS011;6172;42.646;23.344;2024-03-06T12:18:34;6.90;;;5.10;;
12218;SDS011;6172;42.646;23.344;2024-03-06T12:21:01;5.38;;;4.72;;
12218;SDS011;6172;42.646;23.344;2024-03-06T12:26:11;8.70;;;5.00;;
12218;SDS011;6172;42.646;23.344;2024-03-06T12:28:52;7.10;;;5.60;;
12218;SDS011;6172;42.646;23.344;2024-03-06T12:31:34;9.93;;;5.40;;
12218;SDS011;6172;42.646;23.344;2024-03-06T12:39:52;8.97;;;5.77;;
12218;SDS011;6172;42.646;23.344;2024-03-06T12:42:24;9.63;;;6.13;;
12218;SDS011;6172;42.646;23.344;2024-03-06T12:44:53;7.43;;;5.57;;
12218;SDS011;6172;42.646;23.344;2024-03-06T12:47:20;7.13;;;5.37;;
12218;SDS011;6172;42.646;23.344;2024-03-06T12:49:48;6.70;;;4.67;;
12218;SDS011;6172;42.646;23.344;2024-03-06T12:52:16;10.87;;;6.00;;
12218;SDS011;6172;42.646;23.344;2024-03-06T12:54:55;25.10;;;6.03;;
12218;SDS011;6172;42.646;23.344;2024-03-06T12:57:24;14.27;;;5.80;;
12218;SDS011;6172;42.646;23.344;2024-03-06T12:59:53;14.77;;;6.03;;
12218;SDS011;6172;42.646;23.344;2024-03-06T13:02:21;7.50;;;4.80;;
12218;SDS011;6172;42.646;23.344;2024-03-06T13:04:52;11.23;;;5.23;;
12218;SDS011;6172;42.646;23.344;2024-03-06T13:07:33;8.27;;;5.00;;
12218;SDS011;6172;42.646;23.344;2024-03-06T13:10:02;8.20;;;4.80;;
12218;SDS011;6172;42.646;23.344;2024-03-06T13:12:32;10.07;;;4.80;;
12218;SDS011;6172;42.646;23.344;2024-03-06T13:15:00;10.10;;;5.03;;
12218;SDS011;6172;42.646;23.344;2024-03-06T13:17:28;8.60;;;4.70;;
12218;SDS011;6172;42.646;23.344;2024-03-06T13:19:56;8.33;;;4.80;;
12218;SDS011;6172;42.646;23.344;2024-03-06T13:22:23;6.80;;;4.40;;
12218;SDS011;6172;42.646;23.344;2024-03-06T13:24:51;5.07;;;3.63;;
12218;SDS011;6172;42.646;23.344;2024-03-06T13:27:19;5.40;;;3.47;;
12218;SDS011;6172;42.646;23.344;2024-03-06T13:29:49;5.80;;;3.80;;
12218;SDS011;6172;42.646;23.344;2024-03-06T13:35:17;6.47;;;3.50;;
12218;SDS011;6172;42.646;23.344;2024-03-06T13:37:59;5.30;;;3.40;;
12218;SDS011;6172;42.646;23.344;2024-03-06T13:40:42;4.73;;;3.40;;
12218;SDS011;6172;42.646;23.344;2024-03-06T13:43:25;6.33;;;3.37;;
12218;SDS011;6172;42.646;23.344;2024-03-06T13:52:06;6.70;;;3.67;;
12218;SDS011;6172;42.646;23.344;2024-03-06T13:54:41;6.40;;;3.50;;
12218;SDS011;6172;42.646;23.344;2024-03-06T13:57:09;6.43;;;3.23;;
12218;SDS011;6172;42.646;23.344;2024-03-06T13:59:38;4.57;;;3.60;;
12218;SDS011;6172;42.646;23.344;2024-03-06T14:02:07;5.00;;;3.63;;
12218;SDS011;6172;42.646;23.344;2024-03-06T14:04:34;6.60;;;3.53;;
12218;SDS011;6172;42.646;23.344;2024-03-06T14:07:02;4.57;;;3.33;;
12218;SDS011;6172;42.646;23.344;2024-03-06T14:09:29;10.80;;;3.53;;
12218;SDS011;6172;42.646;23.344;2024-03-06T14:14:42;8.37;;;3.87;;
12218;SDS011;6172;42.646;23.344;2024-03-06T14:17:11;6.47;;;3.77;;
12218;SDS011;6172;42.646;23.344;2024-03-06T14:19:38;8.87;;;4.23;;
12218;SDS011;6172;42.646;23.344;2024-03-06T14:22:06;4.47;;;3.60;;
12218;SDS011;6172;42.646;23.344;2024-03-06T14:24:35;8.53;;;4.13;;
12218;SDS011;6172;42.646;23.344;2024-03-06T14:27:02;7.10;;;3.30;;
12218;SDS011;6172;42.646;23.344;2024-03-06T14:29:31;4.27;;;3.83;;
12218;SDS011;6172;42.646;23.344;2024-03-06T14:31:59;5.93;;;3.63;;
12218;SDS011;6172;42.646;23.344;2024-03-06T14:34:28;5.07;;;3.87;;
12218;SDS011;6172;42.646;23.344;2024-03-06T14:36:57;6.70;;;3.80;;
12218;SDS011;6172;42.646;23.344;2024-03-06T14:39:24;8.93;;;3.77;;
12218;SDS011;6172;42.646;23.344;2024-03-06T14:41:57;8.47;;;4.00;;
12218;SDS011;6172;42.646;23.344;2024-03-06T14:44:24;7.60;;;4.10;;
12218;SDS011;6172;42.646;23.344;2024-03-06T14:46:52;7.70;;;3.77;;
12218;SDS011;6172;42.646;23.344;2024-03-06T14:49:20;4.80;;;3.63;;
12218;SDS011;6172;42.646;23.344;2024-03-06T14:54:49;4.27;;;2.63;;
12218;SDS011;6172;42.646;23.344;2024-03-06T14:57:17;3.27;;;2.80;;
12218;SDS011;6172;42.646;23.344;2024-03-06T14:59:49;3.53;;;2.50;;
12218;SDS011;6172;42.646;23.344;2024-03-06T15:02:16;5.63;;;3.30;;
12218;SDS011;6172;42.646;23.344;2024-03-06T15:04:45;4.90;;;3.60;;
12218;SDS011;6172;42.646;23.344;2024-03-06T15:07:13;6.83;;;4.30;;
12218;SDS011;6172;42.646;23.344;2024-03-06T15:09:41;7.27;;;4.83;;